sensor_id;sensor_type;location;lat;lon;timestamp;pressure;altitude;pressure_sealevel;temperature;humidity
55687;BME280;41911;52.362;4.978;2022-10-15T00:00:16;100714.69;;;12.90;53.04
55687;BME280;41911;52.362;4.978;2022-10-15T00:00:48;100716.57;;;13.39;52.69
55687;BME280;41911;52.362;4.978;2022-10-15T00:01:19;100715.34;;;13.14;52.71
55687;BME280;41911;52.362;4.978;2022-10-15T00:01:50;100712.59;;;12.99;52.76
55687;BME280;41911;52.362;4.978;2022-10-15T00:02:21;100714.92;;;13.31;52.80
55687;BME280;41911;52.362;4.978;2022-10-15T00:02:52;100715.19;;;13.46;52.49
55687;BME280;41911;52.362;4.978;2022-10-15T00:03:23;100713.20;;;12.78;52.91
55687;BME280;41911;52.362;4.978;2022-10-15T00:03:54;100715.94;;;12.89;52.92
55687;BME280;41911;52.362;4.978;2022-10-15T00:04:25;100713.34;;;13.33;52.68
55687;BME280;41911;52.362;4.978;2022-10-15T00:04:56;100711.53;;;13.09;52.53
55687;BME280;41911;52.362;4.978;2022-10-15T00:05:27;100710.81;;;13.13;52.51
55687;BME280;41911;52.362;4.978;2022-10-15T00:06:03;100710.25;;;13.10;52.60
55687;BME280;41911;52.362;4.978;2022-10-15T00:06:34;100707.68;;;13.13;52.53
55687;BME280;41911;52.362;4.978;2022-10-15T00:07:05;100708.35;;;12.94;52.35
55687;BME280;41911;52.362;4.978;2022-10-15T00:07:36;100706.89;;;13.28;52.15
55687;BME280;41911;52.362;4.978;2022-10-15T00:08:09;100705.58;;;13.29;52.22
55687;BME280;41911;52.362;4.978;2022-10-15T00:08:41;100707.99;;;13.44;51.93
55687;BME280;41911;52.362;4.978;2022-10-15T00:09:12;100707.94;;;13.08;51.83
55687;BME280;41911;52.362;4.978;2022-10-15T00:09:43;100706.65;;;13.35;51.85
55687;BME280;41911;52.362;4.978;2022-10-15T00:10:15;100708.64;;;13.12;51.73
55687;BME280;41911;52.362;4.978;2022-10-15T00:10:46;100708.47;;;13.07;51.99
55687;BME280;41911;52.362;4.978;2022-10-15T00:11:19;100708.34;;;13.28;52.13
55687;BME280;41911;52.362;4.978;2022-10-15T00:11:51;100707.13;;;13.15;52.20
55687;BME280;41911;52.362;4.978;2022-10-15T00:12:22;100707.54;;;12.83;52.24
55687;BME280;41911;52.362;4.978;2022-10-15T00:12:53;100707.09;;;13.50;52.28
55687;BME280;41911;52.362;4.978;2022-10-15T00:13:25;100706.82;;;13.22;52.24
55687;BME280;41911;52.362;4.978;2022-10-15T00:13:58;100705.51;;;12.95;52.12
55687;BME280;41911;52.362;4.978;2022-10-15T00:14:29;100705.94;;;13.10;52.56
55687;BME280;41911;52.362;4.978;2022-10-15T00:15:00;100707.68;;;12.91;52.31
55687;BME280;41911;52.362;4.978;2022-10-15T00:15:32;100706.05;;;13.34;52.19
55687;BME280;41911;52.362;4.978;2022-10-15T00:16:07;100706.69;;;13.27;52.39
55687;BME280;41911;52.362;4.978;2022-10-15T00:16:38;100706.87;;;13.24;52.33
55687;BME280;41911;52.362;4.978;2022-10-15T00:17:09;100706.78;;;13.29;52.12
55687;BME280;41911;52.362;4.978;2022-10-15T00:17:41;100706.58;;;13.36;52.05
55687;BME280;41911;52.362;4.978;2022-10-15T00:18:12;100706.81;;;13.26;52.05
55687;BME280;41911;52.362;4.978;2022-10-15T00:18:43;100706.28;;;13.68;51.95
55687;BME280;41911;52.362;4.978;2022-10-15T00:19:14;100707.09;;;13.40;51.97
55687;BME280;41911;52.362;4.978;2022-10-15T00:19:45;100705.13;;;13.47;51.76
55687;BME280;41911;52.362;4.978;2022-10-15T00:20:16;100706.86;;;13.21;51.71
55687;BME280;41911;52.362;4.978;2022-10-15T00:20:48;100707.48;;;13.49;51.45
55687;BME280;41911;52.362;4.978;2022-10-15T00:21:19;100707.37;;;13.47;51.52
55687;BME280;41911;52.362;4.978;2022-10-15T00:21:50;100707.74;;;13.13;51.63
55687;BME280;41911;52.362;4.978;2022-10-15T00:22:21;100705.82;;;12.80;51.64
55687;BME280;41911;52.362;4.978;2022-10-15T00:22:52;100706.72;;;13.45;51.70
55687;BME280;41911;52.362;4.978;2022-10-15T00:23:23;100707.81;;;13.34;51.80
55687;BME280;41911;52.362;4.978;2022-10-15T00:23:55;100706.97;;;13.49;51.61
55687;BME280;41911;52.362;4.978;2022-10-15T00:24:26;100705.74;;;13.25;51.64
55687;BME280;41911;52.362;4.978;2022-10-15T00:24:57;100705.19;;;13.23;51.67
55687;BME280;41911;52.362;4.978;2022-10-15T00:25:30;100703.04;;;12.88;51.67
55687;BME280;41911;52.362;4.978;2022-10-15T00:26:06;100703.14;;;13.31;51.58
55687;BME280;41911;52.362;4.978;2022-10-15T00:26:37;100701.67;;;13.61;51.43
55687;BME280;41911;52.362;4.978;2022-10-15T00:27:08;100702.61;;;12.99;51.39
55687;BME280;41911;52.362;4.978;2022-10-15T00:27:39;100701.26;;;13.21;51.54
55687;BME280;41911;52.362;4.978;2022-10-15T00:28:10;100701.54;;;12.97;51.40
55687;BME280;41911;52.362;4.978;2022-10-15T00:28:41;100700.23;;;13.46;51.42
55687;BME280;41911;52.362;4.978;2022-10-15T00:29:12;100701.57;;;13.60;51.26
55687;BME280;41911;52.362;4.978;2022-10-15T00:29:43;100702.97;;;13.25;51.22
55687;BME280;41911;52.362;4.978;2022-10-15T00:30:14;100705.18;;;13.25;51.35
55687;BME280;41911;52.362;4.978;2022-10-15T00:30:45;100705.35;;;13.13;51.81
55687;BME280;41911;52.362;4.978;2022-10-15T00:31:17;100703.43;;;13.14;51.69
55687;BME280;41911;52.362;4.978;2022-10-15T00:31:48;100701.01;;;13.16;51.72
55687;BME280;41911;52.362;4.978;2022-10-15T00:32:21;100701.59;;;13.52;51.64
55687;BME280;41911;52.362;4.978;2022-10-15T00:32:52;100698.40;;;13.25;51.44
55687;BME280;41911;52.362;4.978;2022-10-15T00:33:23;100698.62;;;13.18;51.48
55687;BME280;41911;52.362;4.978;2022-10-15T00:33:56;100697.36;;;12.99;51.44
55687;BME280;41911;52.362;4.978;2022-10-15T00:34:27;100695.14;;;13.24;51.35
55687;BME280;41911;52.362;4.978;2022-10-15T00:34:58;100695.83;;;13.32;51.37
55687;BME280;41911;52.362;4.978;2022-10-15T00:35:29;100694.80;;;13.64;51.44
55687;BME280;41911;52.362;4.978;2022-10-15T00:36:02;100694.23;;;13.66;51.35
55687;BME280;41911;52.362;4.978;2022-10-15T00:36:35;100694.09;;;12.86;51.55
55687;BME280;41911;52.362;4.978;2022-10-15T00:37:07;100695.06;;;13.21;51.54
55687;BME280;41911;52.362;4.978;2022-10-15T00:37:38;100694.48;;;13.25;51.42
55687;BME280;41911;52.362;4.978;2022-10-15T00:38:09;100694.79;;;13.09;51.37
55687;BME280;41911;52.362;4.978;2022-10-15T00:38:40;100695.39;;;13.21;51.31
55687;BME280;41911;52.362;4.978;2022-10-15T00:39:11;100696.07;;;13.66;51.30
55687;BME280;41911;52.362;4.978;2022-10-15T00:39:42;100695.86;;;13.64;51.37
55687;BME280;41911;52.362;4.978;2022-10-15T00:40:13;100695.70;;;12.91;51.43
55687;BME280;41911;52.362;4.978;2022-10-15T00:40:44;100698.22;;;13.04;51.70
55687;BME280;41911;52.362;4.978;2022-10-15T00:41:17;100699.84;;;13.27;51.94
55687;BME280;41911;52.362;4.978;2022-10-15T00:41:48;100699.22;;;12.86;52.54
55687;BME280;41911;52.362;4.978;2022-10-15T00:42:19;100699.68;;;12.61;52.55
55687;BME280;41911;52.362;4.978;2022-10-15T00:42:50;100700.61;;;12.65;52.74
55687;BME280;41911;52.362;4.978;2022-10-15T00:43:39;100703.37;;;12.98;52.62
55687;BME280;41911;52.362;4.978;2022-10-15T00:45:16;100701.35;;;12.96;52.67
55687;BME280;41911;52.362;4.978;2022-10-15T00:45:47;100700.19;;;12.79;52.96
55687;BME280;41911;52.362;4.978;2022-10-15T00:46:23;100700.15;;;13.40;52.87
55687;BME280;41911;52.362;4.978;2022-10-15T00:46:56;100700.90;;;12.93;52.72
55687;BME280;41911;52.362;4.978;2022-10-15T00:47:36;100700.66;;;13.44;53.01
55687;BME280;41911;52.362;4.978;2022-10-15T00:48:09;100704.16;;;13.16;52.87
55687;BME280;41911;52.362;4.978;2022-10-15T00:48:40;100701.62;;;13.22;52.66
55687;BME280;41911;52.362;4.978;2022-10-15T00:49:19;100702.31;;;12.94;52.63
55687;BME280;41911;52.362;4.978;2022-10-15T00:50:00;100700.94;;;12.96;52.79
55687;BME280;41911;52.362;4.978;2022-10-15T00:50:33;100700.83;;;12.56;53.32
55687;BME280;41911;52.362;4.978;2022-10-15T00:51:07;100701.40;;;12.63;53.39
55687;BME280;41911;52.362;4.978;2022-10-15T00:51:43;100703.70;;;12.94;53.27
55687;BME280;41911;52.362;4.978;2022-10-15T00:52:24;100702.28;;;12.65;53.23
55687;BME280;41911;52.362;4.978;2022-10-15T00:52:59;100702.82;;;13.04;53.13
55687;BME280;41911;52.362;4.978;2022-10-15T00:53:32;100703.12;;;12.77;53.08
55687;BME280;41911;52.362;4.978;2022-10-15T00:54:03;100702.48;;;12.88;52.90
55687;BME280;41911;52.362;4.978;2022-10-15T00:54:40;100701.11;;;12.76;52.82
55687;BME280;41911;52.362;4.978;2022-10-15T00:55:15;100699.16;;;12.97;52.94
55687;BME280;41911;52.362;4.978;2022-10-15T00:55:49;100702.45;;;13.33;52.70
55687;BME280;41911;52.362;4.978;2022-10-15T00:56:21;100701.14;;;12.98;52.67
55687;BME280;41911;52.362;4.978;2022-10-15T00:56:54;100703.93;;;13.04;52.66
55687;BME280;41911;52.362;4.978;2022-10-15T00:57:26;100703.23;;;13.09;52.53
55687;BME280;41911;52.362;4.978;2022-10-15T00:58:00;100701.31;;;13.35;52.53
55687;BME280;41911;52.362;4.978;2022-10-15T00:58:33;100702.04;;;13.26;52.71
55687;BME280;41911;52.362;4.978;2022-10-15T00:59:06;100701.31;;;13.04;52.59
55687;BME280;41911;52.362;4.978;2022-10-15T00:59:46;100700.46;;;13.12;52.36
55687;BME280;41911;52.362;4.978;2022-10-15T01:00:20;100699.25;;;13.18;52.34
55687;BME280;41911;52.362;4.978;2022-10-15T01:00:51;100699.83;;;13.38;52.49
55687;BME280;41911;52.362;4.978;2022-10-15T01:01:22;100694.10;;;13.17;52.34
55687;BME280;41911;52.362;4.978;2022-10-15T01:01:54;100699.28;;;12.82;52.57
55687;BME280;41911;52.362;4.978;2022-10-15T01:02:25;100699.01;;;12.70;52.75
55687;BME280;41911;52.362;4.978;2022-10-15T01:02:56;100697.98;;;12.52;53.08
55687;BME280;41911;52.362;4.978;2022-10-15T01:03:27;100697.67;;;12.58;52.83
55687;BME280;41911;52.362;4.978;2022-10-15T01:04:00;100697.61;;;12.85;52.96
55687;BME280;41911;52.362;4.978;2022-10-15T01:04:32;100699.45;;;12.77;53.10
55687;BME280;41911;52.362;4.978;2022-10-15T01:05:05;100697.17;;;12.85;53.00
55687;BME280;41911;52.362;4.978;2022-10-15T01:05:38;100697.84;;;13.18;52.99
55687;BME280;41911;52.362;4.978;2022-10-15T01:06:09;100697.15;;;12.89;52.98
55687;BME280;41911;52.362;4.978;2022-10-15T01:06:40;100697.24;;;12.81;52.89
55687;BME280;41911;52.362;4.978;2022-10-15T01:07:11;100699.82;;;13.10;52.99
55687;BME280;41911;52.362;4.978;2022-10-15T01:07:43;100696.50;;;12.70;53.26
55687;BME280;41911;52.362;4.978;2022-10-15T01:08:14;100696.75;;;12.63;53.55
55687;BME280;41911;52.362;4.978;2022-10-15T01:08:45;100696.53;;;12.84;53.57
55687;BME280;41911;52.362;4.978;2022-10-15T01:09:16;100694.78;;;12.51;53.65
55687;BME280;41911;52.362;4.978;2022-10-15T01:09:47;100694.29;;;12.87;53.62
55687;BME280;41911;52.362;4.978;2022-10-15T01:10:19;100693.32;;;12.95;53.40
55687;BME280;41911;52.362;4.978;2022-10-15T01:10:59;100691.72;;;12.63;53.53
55687;BME280;41911;52.362;4.978;2022-10-15T01:11:39;100694.26;;;12.70;53.60
55687;BME280;41911;52.362;4.978;2022-10-15T01:12:21;100693.96;;;12.65;53.76
55687;BME280;41911;52.362;4.978;2022-10-15T01:13:00;100692.35;;;13.00;53.57
55687;BME280;41911;52.362;4.978;2022-10-15T01:13:41;100693.34;;;12.48;53.89
55687;BME280;41911;52.362;4.978;2022-10-15T01:14:31;100691.31;;;13.01;53.66
55687;BME280;41911;52.362;4.978;2022-10-15T01:15:14;100693.15;;;13.07;53.46
55687;BME280;41911;52.362;4.978;2022-10-15T01:15:52;100692.32;;;12.79;53.51
55687;BME280;41911;52.362;4.978;2022-10-15T01:16:31;100688.03;;;12.78;53.45
55687;BME280;41911;52.362;4.978;2022-10-15T01:17:10;100690.20;;;12.78;53.96
55687;BME280;41911;52.362;4.978;2022-10-15T01:17:52;100686.89;;;12.70;54.35
55687;BME280;41911;52.362;4.978;2022-10-15T01:18:30;100687.97;;;13.32;53.83
55687;BME280;41911;52.362;4.978;2022-10-15T01:19:06;100684.79;;;13.11;53.69
55687;BME280;41911;52.362;4.978;2022-10-15T01:20:01;100683.99;;;13.06;53.54
55687;BME280;41911;52.362;4.978;2022-10-15T01:21:15;100681.21;;;12.63;53.77
55687;BME280;41911;52.362;4.978;2022-10-15T01:21:55;100681.14;;;12.76;53.92
55687;BME280;41911;52.362;4.978;2022-10-15T01:22:40;100681.22;;;12.67;53.79
55687;BME280;41911;52.362;4.978;2022-10-15T01:24:42;100682.80;;;12.97;53.74
55687;BME280;41911;52.362;4.978;2022-10-15T01:25:21;100679.37;;;12.97;53.63
55687;BME280;41911;52.362;4.978;2022-10-15T01:26:11;100676.30;;;12.41;54.23
55687;BME280;41911;52.362;4.978;2022-10-15T01:27:19;100677.68;;;12.62;54.35
55687;BME280;41911;52.362;4.978;2022-10-15T01:27:56;100674.58;;;12.68;53.91
55687;BME280;41911;52.362;4.978;2022-10-15T01:28:44;100675.60;;;13.25;53.70
55687;BME280;41911;52.362;4.978;2022-10-15T01:29:31;100672.93;;;12.88;54.03
55687;BME280;41911;52.362;4.978;2022-10-15T01:30:17;100675.21;;;13.04;53.78
55687;BME280;41911;52.362;4.978;2022-10-15T01:30:56;100671.87;;;13.15;53.60
55687;BME280;41911;52.362;4.978;2022-10-15T01:31:33;100673.54;;;13.27;53.44
55687;BME280;41911;52.362;4.978;2022-10-15T01:32:09;100671.33;;;13.10;53.57
55687;BME280;41911;52.362;4.978;2022-10-15T01:32:53;100670.13;;;13.22;53.48
55687;BME280;41911;52.362;4.978;2022-10-15T01:33:36;100669.86;;;12.86;53.47
55687;BME280;41911;52.362;4.978;2022-10-15T01:34:19;100668.54;;;13.44;53.15
55687;BME280;41911;52.362;4.978;2022-10-15T01:34:59;100668.81;;;13.11;53.05
55687;BME280;41911;52.362;4.978;2022-10-15T01:35:42;100668.88;;;12.96;53.29
55687;BME280;41911;52.362;4.978;2022-10-15T01:36:20;100666.50;;;12.79;53.60
55687;BME280;41911;52.362;4.978;2022-10-15T01:36:56;100665.76;;;13.21;53.46
55687;BME280;41911;52.362;4.978;2022-10-15T01:37:36;100665.62;;;13.06;53.25
55687;BME280;41911;52.362;4.978;2022-10-15T01:38:19;100663.54;;;13.01;53.27
55687;BME280;41911;52.362;4.978;2022-10-15T01:38:57;100661.37;;;13.13;53.22
55687;BME280;41911;52.362;4.978;2022-10-15T01:39:33;100660.57;;;13.18;53.19
55687;BME280;41911;52.362;4.978;2022-10-15T01:40:14;100659.83;;;13.40;53.16
55687;BME280;41911;52.362;4.978;2022-10-15T01:40:52;100659.95;;;13.22;53.07
55687;BME280;41911;52.362;4.978;2022-10-15T01:41:29;100660.54;;;13.39;53.01
55687;BME280;41911;52.362;4.978;2022-10-15T01:42:05;100656.75;;;13.18;52.86
55687;BME280;41911;52.362;4.978;2022-10-15T01:42:42;100658.53;;;13.40;52.89
55687;BME280;41911;52.362;4.978;2022-10-15T01:43:19;100658.56;;;13.16;53.12
55687;BME280;41911;52.362;4.978;2022-10-15T01:43:59;100658.62;;;13.33;53.02
55687;BME280;41911;52.362;4.978;2022-10-15T01:44:34;100658.82;;;13.35;52.97
55687;BME280;41911;52.362;4.978;2022-10-15T01:45:09;100659.97;;;13.68;52.75
55687;BME280;41911;52.362;4.978;2022-10-15T01:45:49;100660.81;;;13.47;52.64
55687;BME280;41911;52.362;4.978;2022-10-15T01:46:25;100660.32;;;13.49;52.62
55687;BME280;41911;52.362;4.978;2022-10-15T01:47:03;100658.70;;;13.10;52.76
55687;BME280;41911;52.362;4.978;2022-10-15T01:47:38;100655.44;;;13.37;52.83
55687;BME280;41911;52.362;4.978;2022-10-15T01:48:13;100658.89;;;13.44;52.79
55687;BME280;41911;52.362;4.978;2022-10-15T01:48:47;100656.66;;;13.44;52.83
55687;BME280;41911;52.362;4.978;2022-10-15T01:49:22;100657.87;;;13.58;52.70
55687;BME280;41911;52.362;4.978;2022-10-15T01:49:56;100655.43;;;13.65;52.59
55687;BME280;41911;52.362;4.978;2022-10-15T01:50:34;100657.13;;;13.64;52.62
55687;BME280;41911;52.362;4.978;2022-10-15T01:51:10;100655.86;;;13.65;52.29
55687;BME280;41911;52.362;4.978;2022-10-15T01:51:43;100652.85;;;13.67;52.41
55687;BME280;41911;52.362;4.978;2022-10-15T01:52:18;100648.71;;;13.80;52.25
55687;BME280;41911;52.362;4.978;2022-10-15T01:52:51;100649.28;;;13.54;52.11
55687;BME280;41911;52.362;4.978;2022-10-15T01:53:25;100646.36;;;13.21;52.31
55687;BME280;41911;52.362;4.978;2022-10-15T01:53:58;100645.69;;;13.75;52.31
55687;BME280;41911;52.362;4.978;2022-10-15T01:54:30;100645.08;;;13.80;52.13
55687;BME280;41911;52.362;4.978;2022-10-15T01:55:02;100645.41;;;13.86;52.21
55687;BME280;41911;52.362;4.978;2022-10-15T01:55:36;100641.79;;;13.21;52.28
55687;BME280;41911;52.362;4.978;2022-10-15T01:56:13;100641.80;;;13.20;52.77
55687;BME280;41911;52.362;4.978;2022-10-15T01:56:47;100643.72;;;13.36;52.50
55687;BME280;41911;52.362;4.978;2022-10-15T01:57:21;100644.33;;;13.55;52.74
55687;BME280;41911;52.362;4.978;2022-10-15T01:57:56;100642.17;;;13.50;52.71
55687;BME280;41911;52.362;4.978;2022-10-15T01:58:29;100642.34;;;13.64;52.61
55687;BME280;41911;52.362;4.978;2022-10-15T01:59:01;100642.79;;;13.29;52.62
55687;BME280;41911;52.362;4.978;2022-10-15T01:59:33;100641.83;;;13.33;53.06
55687;BME280;41911;52.362;4.978;2022-10-15T02:00:07;100639.89;;;13.49;52.88
55687;BME280;41911;52.362;4.978;2022-10-15T02:00:40;100642.68;;;13.56;52.71
55687;BME280;41911;52.362;4.978;2022-10-15T02:01:14;100639.85;;;13.08;52.83
55687;BME280;41911;52.362;4.978;2022-10-15T02:01:45;100639.65;;;13.22;52.84
55687;BME280;41911;52.362;4.978;2022-10-15T02:02:16;100640.17;;;13.19;52.80
55687;BME280;41911;52.362;4.978;2022-10-15T02:02:47;100641.09;;;13.12;52.88
55687;BME280;41911;52.362;4.978;2022-10-15T02:03:18;100643.20;;;13.39;52.96
55687;BME280;41911;52.362;4.978;2022-10-15T02:03:50;100640.22;;;13.44;52.88
55687;BME280;41911;52.362;4.978;2022-10-15T02:04:23;100638.41;;;13.39;52.98
55687;BME280;41911;52.362;4.978;2022-10-15T02:04:55;100638.08;;;13.42;52.92
55687;BME280;41911;52.362;4.978;2022-10-15T02:05:29;100636.71;;;13.35;52.89
55687;BME280;41911;52.362;4.978;2022-10-15T02:06:06;100638.47;;;13.17;52.83
55687;BME280;41911;52.362;4.978;2022-10-15T02:06:41;100635.23;;;13.02;53.02
55687;BME280;41911;52.362;4.978;2022-10-15T02:07:17;100637.20;;;13.17;53.31
55687;BME280;41911;52.362;4.978;2022-10-15T02:08:01;100634.52;;;13.22;53.31
55687;BME280;41911;52.362;4.978;2022-10-15T02:08:42;100636.31;;;13.41;53.06
55687;BME280;41911;52.362;4.978;2022-10-15T02:09:24;100634.76;;;13.30;53.11
55687;BME280;41911;52.362;4.978;2022-10-15T02:10:07;100636.06;;;13.07;52.98
55687;BME280;41911;52.362;4.978;2022-10-15T02:10:47;100632.53;;;13.39;52.97
55687;BME280;41911;52.362;4.978;2022-10-15T02:11:21;100633.38;;;13.50;52.74
55687;BME280;41911;52.362;4.978;2022-10-15T02:12:04;100633.06;;;13.42;52.91
55687;BME280;41911;52.362;4.978;2022-10-15T02:12:47;100630.83;;;13.46;52.88
55687;BME280;41911;52.362;4.978;2022-10-15T02:13:24;100629.86;;;13.51;52.87
55687;BME280;41911;52.362;4.978;2022-10-15T02:14:06;100630.99;;;13.62;52.78
55687;BME280;41911;52.362;4.978;2022-10-15T02:14:45;100627.52;;;13.61;52.70
55687;BME280;41911;52.362;4.978;2022-10-15T02:15:26;100627.68;;;13.68;52.69
55687;BME280;41911;52.362;4.978;2022-10-15T02:16:08;100625.65;;;13.50;52.51
55687;BME280;41911;52.362;4.978;2022-10-15T02:16:44;100626.57;;;13.68;52.75
55687;BME280;41911;52.362;4.978;2022-10-15T02:17:18;100626.11;;;13.64;52.63
55687;BME280;41911;52.362;4.978;2022-10-15T02:17:59;100627.38;;;13.60;52.94
55687;BME280;41911;52.362;4.978;2022-10-15T02:18:40;100627.17;;;13.91;52.63
55687;BME280;41911;52.362;4.978;2022-10-15T02:19:23;100625.54;;;13.84;52.49
55687;BME280;41911;52.362;4.978;2022-10-15T02:19:59;100624.66;;;13.87;52.57
55687;BME280;41911;52.362;4.978;2022-10-15T02:20:44;100623.84;;;13.42;52.68
55687;BME280;41911;52.362;4.978;2022-10-15T02:21:21;100622.71;;;13.69;52.85
55687;BME280;41911;52.362;4.978;2022-10-15T02:22:00;100620.73;;;13.43;52.81
55687;BME280;41911;52.362;4.978;2022-10-15T02:22:40;100621.18;;;13.42;52.69
55687;BME280;41911;52.362;4.978;2022-10-15T02:23:18;100619.83;;;13.53;52.92
55687;BME280;41911;52.362;4.978;2022-10-15T02:23:52;100621.10;;;13.19;52.89
55687;BME280;41911;52.362;4.978;2022-10-15T02:24:31;100619.54;;;13.69;52.95
55687;BME280;41911;52.362;4.978;2022-10-15T02:25:07;100620.56;;;13.68;53.09
55687;BME280;41911;52.362;4.978;2022-10-15T02:25:39;100621.31;;;13.42;52.93
55687;BME280;41911;52.362;4.978;2022-10-15T02:26:12;100623.27;;;13.84;52.84
55687;BME280;41911;52.362;4.978;2022-10-15T02:26:44;100623.94;;;13.77;52.83
55687;BME280;41911;52.362;4.978;2022-10-15T02:27:17;100622.42;;;13.32;53.18
55687;BME280;41911;52.362;4.978;2022-10-15T02:27:52;100625.40;;;13.05;53.51
55687;BME280;41911;52.362;4.978;2022-10-15T02:28:25;100628.07;;;13.22;53.37
55687;BME280;41911;52.362;4.978;2022-10-15T02:28:58;100625.81;;;13.53;53.24
55687;BME280;41911;52.362;4.978;2022-10-15T02:29:32;100626.46;;;13.73;53.17
55687;BME280;41911;52.362;4.978;2022-10-15T02:30:07;100625.89;;;13.76;53.12
55687;BME280;41911;52.362;4.978;2022-10-15T02:30:41;100624.93;;;13.70;52.88
55687;BME280;41911;52.362;4.978;2022-10-15T02:31:15;100623.41;;;13.37;53.12
55687;BME280;41911;52.362;4.978;2022-10-15T02:31:49;100622.37;;;13.46;52.95
55687;BME280;41911;52.362;4.978;2022-10-15T02:32:21;100621.04;;;13.77;53.14
55687;BME280;41911;52.362;4.978;2022-10-15T02:32:57;100623.15;;;13.76;53.05
55687;BME280;41911;52.362;4.978;2022-10-15T02:33:28;100623.66;;;13.62;52.91
55687;BME280;41911;52.362;4.978;2022-10-15T02:34:04;100622.70;;;13.66;52.75
55687;BME280;41911;52.362;4.978;2022-10-15T02:34:38;100623.73;;;13.51;53.04
55687;BME280;41911;52.362;4.978;2022-10-15T02:35:10;100620.89;;;13.54;53.37
55687;BME280;41911;52.362;4.978;2022-10-15T02:35:42;100619.82;;;13.48;53.47
55687;BME280;41911;52.362;4.978;2022-10-15T02:36:15;100620.20;;;13.50;53.37
55687;BME280;41911;52.362;4.978;2022-10-15T02:36:48;100622.19;;;13.50;53.30
55687;BME280;41911;52.362;4.978;2022-10-15T02:37:23;100620.55;;;13.20;53.52
55687;BME280;41911;52.362;4.978;2022-10-15T02:37:57;100621.11;;;13.33;53.73
55687;BME280;41911;52.362;4.978;2022-10-15T02:38:32;100618.74;;;13.16;53.69
55687;BME280;41911;52.362;4.978;2022-10-15T02:39:06;100618.99;;;13.46;53.67
55687;BME280;41911;52.362;4.978;2022-10-15T02:39:39;100618.22;;;13.51;53.62
55687;BME280;41911;52.362;4.978;2022-10-15T02:40:11;100616.99;;;13.47;53.66
55687;BME280;41911;52.362;4.978;2022-10-15T02:40:43;100617.41;;;13.44;53.69
55687;BME280;41911;52.362;4.978;2022-10-15T02:41:15;100616.25;;;12.89;53.73
55687;BME280;41911;52.362;4.978;2022-10-15T02:41:47;100617.68;;;13.50;53.66
55687;BME280;41911;52.362;4.978;2022-10-15T02:42:19;100615.66;;;13.24;53.62
55687;BME280;41911;52.362;4.978;2022-10-15T02:42:50;100615.65;;;13.50;53.54
55687;BME280;41911;52.362;4.978;2022-10-15T02:43:21;100616.28;;;13.41;53.31
55687;BME280;41911;52.362;4.978;2022-10-15T02:43:52;100617.66;;;13.55;53.18
55687;BME280;41911;52.362;4.978;2022-10-15T02:44:25;100614.77;;;13.54;53.51
55687;BME280;41911;52.362;4.978;2022-10-15T02:44:56;100615.18;;;13.55;53.59
55687;BME280;41911;52.362;4.978;2022-10-15T02:45:27;100613.32;;;13.59;53.57
55687;BME280;41911;52.362;4.978;2022-10-15T02:45:58;100614.95;;;13.64;53.56
55687;BME280;41911;52.362;4.978;2022-10-15T02:46:29;100614.29;;;13.65;53.51
55687;BME280;41911;52.362;4.978;2022-10-15T02:47:01;100612.67;;;13.63;53.52
55687;BME280;41911;52.362;4.978;2022-10-15T02:47:32;100613.89;;;13.65;53.47
55687;BME280;41911;52.362;4.978;2022-10-15T02:48:04;100611.83;;;13.25;53.59
55687;BME280;41911;52.362;4.978;2022-10-15T02:48:35;100613.21;;;13.25;53.73
55687;BME280;41911;52.362;4.978;2022-10-15T02:49:06;100611.64;;;13.73;53.35
55687;BME280;41911;52.362;4.978;2022-10-15T02:49:37;100608.30;;;13.65;53.36
55687;BME280;41911;52.362;4.978;2022-10-15T02:50:08;100608.15;;;14.04;53.23
55687;BME280;41911;52.362;4.978;2022-10-15T02:50:39;100608.64;;;13.68;53.50
55687;BME280;41911;52.362;4.978;2022-10-15T02:51:10;100605.26;;;13.62;53.53
55687;BME280;41911;52.362;4.978;2022-10-15T02:51:41;100603.36;;;13.54;53.64
55687;BME280;41911;52.362;4.978;2022-10-15T02:52:12;100601.98;;;13.64;53.49
55687;BME280;41911;52.362;4.978;2022-10-15T02:52:43;100599.78;;;13.67;53.86
55687;BME280;41911;52.362;4.978;2022-10-15T02:53:14;100601.65;;;13.32;54.10
55687;BME280;41911;52.362;4.978;2022-10-15T02:53:45;100600.76;;;13.63;54.10
55687;BME280;41911;52.362;4.978;2022-10-15T02:54:16;100597.16;;;13.37;54.02
55687;BME280;41911;52.362;4.978;2022-10-15T02:54:47;100596.25;;;13.31;54.18
55687;BME280;41911;52.362;4.978;2022-10-15T02:55:18;100592.13;;;13.30;54.12
55687;BME280;41911;52.362;4.978;2022-10-15T02:55:49;100592.46;;;13.10;54.06
55687;BME280;41911;52.362;4.978;2022-10-15T02:56:21;100592.79;;;13.47;53.96
55687;BME280;41911;52.362;4.978;2022-10-15T02:56:52;100592.90;;;13.52;53.91
55687;BME280;41911;52.362;4.978;2022-10-15T02:57:23;100591.46;;;13.39;54.03
55687;BME280;41911;52.362;4.978;2022-10-15T02:57:54;100592.87;;;13.58;53.91
55687;BME280;41911;52.362;4.978;2022-10-15T02:58:25;100592.10;;;13.65;53.70
55687;BME280;41911;52.362;4.978;2022-10-15T02:58:56;100593.69;;;13.65;53.66
55687;BME280;41911;52.362;4.978;2022-10-15T02:59:27;100591.53;;;13.70;53.73
55687;BME280;41911;52.362;4.978;2022-10-15T02:59:58;100591.49;;;13.28;53.71
55687;BME280;41911;52.362;4.978;2022-10-15T03:00:29;100591.14;;;13.25;53.75
55687;BME280;41911;52.362;4.978;2022-10-15T03:01:00;100590.49;;;13.30;53.73
55687;BME280;41911;52.362;4.978;2022-10-15T03:01:31;100589.49;;;13.32;53.66
55687;BME280;41911;52.362;4.978;2022-10-15T03:02:02;100588.00;;;13.37;54.01
55687;BME280;41911;52.362;4.978;2022-10-15T03:02:32;100587.47;;;13.44;53.89
55687;BME280;41911;52.362;4.978;2022-10-15T03:03:03;100589.06;;;13.40;54.03